Time;durP1;ratioP1;P1;durP2;ratioP2;P2;SDS_P1;SDS_P2;PMS_P1;PMS_P2;Temp;Humidity;BMP_temperature;BMP_pressure;BME280_temperature;BME280_humidity;BME280_pressure;Samples;Min_cycle;Max_cycle;Signal;HPM_P1;HPM_P2
2023/07/05 00:00:25;;;;;;;6.30;2.50;;;;;;;26.91;41.60;100456.15;107790;1293;21990;-60
2023/07/05 00:02:52;;;;;;;6.90;3.00;;;;;;;26.91;41.61;100454.30;107772;1287;22029;-72
2023/07/05 00:05:17;;;;;;;5.30;2.70;;;;;;;26.91;41.66;100457.19;107836;1287;22002;-61
2023/07/05 00:07:43;;;;;;;7.90;3.20;;;;;;;26.90;41.75;100458.17;107794;1287;21995;-60
2023/07/05 00:10:09;;;;;;;5.80;2.40;;;;;;;26.89;41.64;100457.41;107784;1284;22002;-60
2023/07/05 00:12:35;;;;;;;6.10;2.80;;;;;;;26.87;41.48;100458.78;107820;1293;21999;-61
2023/07/05 00:15:01;;;;;;;5.00;2.40;;;;;;;26.84;41.64;100460.21;107771;1293;22050;-66
2023/07/05 00:17:26;;;;;;;6.70;2.80;;;;;;;26.82;41.62;100467.94;107768;1283;21984;-61
2023/07/05 00:19:52;;;;;;;8.70;3.40;;;;;;;26.81;41.61;100469.30;107804;1293;21993;-61
2023/07/05 00:22:18;;;;;;;6.60;2.70;;;;;;;26.80;41.55;100468.07;107791;1287;22005;-61
2023/07/05 00:24:44;;;;;;;5.00;2.80;;;;;;;26.79;41.59;100465.61;107884;1287;22001;-60
2023/07/05 00:27:10;;;;;;;9.50;3.30;;;;;;;26.78;41.61;100471.14;107778;1283;21990;-61
2023/07/05 00:29:36;;;;;;;6.20;3.20;;;;;;;26.76;41.75;100467.66;107865;1283;21995;-61
2023/07/05 00:32:02;;;;;;;4.70;2.60;;;;;;;26.73;41.82;100466.48;107810;1287;21960;-66
2023/07/05 00:34:28;;;;;;;5.70;3.10;;;;;;;26.69;41.78;100466.59;107816;1284;22030;-60
2023/07/05 00:36:53;;;;;;;6.50;2.80;;;;;;;26.68;41.89;100465.48;107811;1287;22034;-61
2023/07/05 00:39:20;;;;;;;5.40;2.90;;;;;;;26.67;41.94;100468.23;107791;1293;22000;-60
2023/07/05 00:41:45;;;;;;;8.30;2.60;;;;;;;26.67;41.94;100467.70;107787;1287;21993;-72
2023/07/05 00:44:12;;;;;;;4.60;3.00;;;;;;;26.65;42.03;100463.67;107750;1293;21993;-60
2023/07/05 00:46:38;;;;;;;4.20;2.80;;;;;;;26.63;42.12;100460.65;107885;1293;22005;-72
2023/07/05 00:49:06;;;;;;;6.70;3.00;;;;;;;26.60;42.16;100460.50;107710;1293;21993;-60
2023/07/05 00:51:48;;;;;;;5.70;3.30;;;;;;;26.57;42.17;100459.12;107835;1283;22031;-62
2023/07/05 00:54:13;;;;;;;5.40;2.90;;;;;;;26.53;42.26;100456.00;107920;1292;22025;-60
2023/07/05 00:56:41;;;;;;;8.60;3.60;;;;;;;26.48;42.23;100449.77;107508;1287;21998;-60
2023/07/05 00:59:07;;;;;;;5.20;2.70;;;;;;;26.42;42.28;100445.86;107818;1287;21997;-71
2023/07/05 01:01:33;;;;;;;7.80;3.30;;;;;;;26.40;42.46;100450.70;107861;1290;22027;-60
2023/07/05 01:03:59;;;;;;;4.90;3.20;;;;;;;26.38;42.45;100451.08;107696;1293;21993;-72
2023/07/05 01:06:25;;;;;;;8.00;3.50;;;;;;;26.35;42.49;100445.73;107649;1293;22202;-59
2023/07/05 01:08:51;;;;;;;4.70;3.20;;;;;;;26.31;42.66;100444.42;107813;1293;22000;-71
2023/07/05 01:11:38;;;;;;;5.50;3.10;;;;;;;26.25;42.80;100445.54;107775;1287;21997;-60
2023/07/05 01:14:16;;;;;;;7.40;3.70;;;;;;;26.20;42.90;100444.32;107793;1293;23059;-70
2023/07/05 01:16:50;;;;;;;5.10;3.50;;;;;;;26.16;42.99;100445.58;107779;1293;21998;-71
2023/07/05 01:20:07;;;;;;;5.70;3.20;;;;;;;26.11;43.17;100441.89;107827;1292;21996;-60
2023/07/05 01:22:39;;;;;;;7.90;3.20;;;;;;;26.08;43.35;100438.04;107383;1298;21997;-71
2023/07/05 01:25:38;;;;;;;7.50;3.00;;;;;;;26.05;43.44;100435.57;107772;1292;21988;-60
2023/07/05 01:28:16;;;;;;;9.30;3.70;;;;;;;26.04;43.44;100441.25;107799;1284;21997;-59
2023/07/05 01:31:08;;;;;;;6.70;3.60;;;;;;;26.03;43.60;100440.62;107826;1286;21993;-70
2023/07/05 01:33:39;;;;;;;6.30;3.50;;;;;;;26.01;43.62;100439.48;107757;1292;22004;-71
2023/07/05 01:36:05;;;;;;;5.40;3.60;;;;;;;25.97;43.74;100439.05;107833;1287;22473;-59
2023/07/05 01:38:31;;;;;;;5.90;3.50;;;;;;;25.94;43.81;100439.23;107525;1290;21995;-71
2023/07/05 01:41:00;;;;;;;5.20;3.90;;;;;;;25.92;43.86;100439.95;107976;1287;21998;-60
2023/07/05 01:43:27;;;;;;;6.90;3.60;;;;;;;25.89;44.05;100437.15;107846;1287;22036;-59
2023/07/05 01:46:01;;;;;;;6.30;3.60;;;;;;;25.86;44.13;100436.98;107848;1287;22053;-71
2023/07/05 01:48:30;;;;;;;6.70;4.30;;;;;;;25.84;44.19;100438.73;107881;1292;22108;-59
2023/07/05 01:51:01;;;;;;;7.50;3.50;;;;;;;25.82;44.30;100441.57;107855;1283;21998;-61
2023/07/05 01:53:32;;;;;;;8.10;4.10;;;;;;;25.80;44.37;100445.02;107845;1290;22006;-59
2023/07/05 01:56:01;;;;;;;8.70;4.10;;;;;;;25.78;44.38;100445.84;107855;1287;22007;-59
2023/07/05 01:58:28;;;;;;;8.40;3.80;;;;;;;25.78;44.43;100446.25;107878;1286;22128;-71
2023/07/05 02:00:54;;;;;;;7.90;4.00;;;;;;;25.76;44.52;100445.46;107825;1293;21995;-60
2023/07/05 02:03:21;;;;;;;6.80;4.50;;;;;;;25.76;44.71;100450.18;107798;1287;21987;-60
2023/07/05 02:05:47;;;;;;;5.90;4.20;;;;;;;25.72;44.93;100452.78;107837;1287;22014;-71
2023/07/05 02:08:13;;;;;;;8.30;4.30;;;;;;;25.69;44.97;100454.45;107868;1292;21992;-71
2023/07/05 02:10:39;;;;;;;7.70;4.70;;;;;;;25.69;45.15;100451.58;107821;1286;22006;-73
2023/07/05 02:13:08;;;;;;;9.10;3.90;;;;;;;25.68;45.15;100449.79;107797;1289;22253;-60
2023/07/05 02:15:37;;;;;;;;;;;;;;;25.70;45.33;100449.89;107754;1280;24354;-59
2023/07/05 02:18:04;;;;;;;5.90;3.80;;;;;;;25.71;45.48;100451.59;107758;1287;21999;-72
2023/07/05 02:20:30;;;;;;;7.40;4.10;;;;;;;25.71;45.59;100453.73;107817;1286;22011;-58
2023/07/05 02:22:56;;;;;;;6.90;4.10;;;;;;;25.72;45.62;100453.35;107767;1284;21996;-60
2023/07/05 02:25:22;;;;;;;9.20;4.90;;;;;;;25.72;45.70;100456.71;107899;1292;21995;-60
2023/07/05 02:27:48;;;;;;;5.80;4.30;;;;;;;25.73;45.74;100458.30;107966;1287;22000;-60
2023/07/05 02:30:14;;;;;;;6.30;4.90;;;;;;;25.74;45.98;100456.08;107976;1281;22193;-74
2023/07/05 02:32:40;;;;;;;12.00;4.40;;;;;;;25.74;46.08;100454.23;107981;1290;22033;-60
2023/07/05 02:35:07;;;;;;;6.90;4.40;;;;;;;25.74;46.04;100452.83;107930;1287;21993;-59
2023/07/05 02:37:33;;;;;;;4.80;3.70;;;;;;;25.73;46.11;100453.21;107759;1290;21995;-71
2023/07/05 02:39:58;;;;;;;6.60;4.30;;;;;;;25.74;46.28;100455.30;107705;1292;22001;-71
2023/07/05 02:42:24;;;;;;;9.80;4.70;;;;;;;25.76;46.43;100453.38;107765;1284;22000;-71
2023/07/05 02:44:55;;;;;;;9.20;5.10;;;;;;;25.77;46.51;100452.55;107740;1284;21989;-59
2023/07/05 02:47:21;;;;;;;;;;;;;;;25.78;46.70;100457.38;107801;1290;21986;-59
2023/07/05 02:49:46;;;;;;;8.10;4.40;;;;;;;25.79;46.70;100456.04;107842;1284;21993;-59
2023/07/05 02:52:12;;;;;;;9.70;5.50;;;;;;;25.80;46.76;100457.91;107768;1290;21992;-59
2023/07/05 02:54:38;;;;;;;8.10;4.30;;;;;;;25.82;46.92;100457.56;107763;1284;22014;-60
2023/07/05 02:57:04;;;;;;;8.30;4.50;;;;;;;25.86;46.85;100454.09;107758;1290;22485;-59
2023/07/05 02:59:30;;;;;;;8.00;4.20;;;;;;;25.93;46.90;100452.44;107814;1284;21997;-59
2023/07/05 03:01:55;;;;;;;19.90;5.50;;;;;;;26.04;46.81;100456.88;108040;1284;23013;-72
2023/07/05 03:04:21;;;;;;;11.80;4.90;;;;;;;26.08;46.88;100455.08;108007;1290;21998;-72
2023/07/05 03:06:47;;;;;;;12.70;5.30;;;;;;;26.12;46.98;100455.33;107874;1287;21986;-60
2023/07/05 03:09:13;;;;;;;9.10;4.70;;;;;;;26.17;46.99;100453.39;108129;1290;21989;-60
2023/07/05 03:11:39;;;;;;;9.00;4.50;;;;;;;26.21;47.04;100449.98;107819;1284;22064;-71
2023/07/05 03:14:04;;;;;;;7.00;4.50;;;;;;;26.25;46.96;100444.66;107842;1284;21985;-60
2023/07/05 03:16:30;;;;;;;9.40;4.40;;;;;;;26.31;47.06;100442.45;107830;1290;23867;-60
2023/07/05 03:18:56;;;;;;;8.70;4.60;;;;;;;26.37;47.17;100436.92;107804;1284;22002;-60
2023/07/05 03:21:21;;;;;;;8.80;4.40;;;;;;;26.44;47.48;100432.95;107824;1284;21998;-60
2023/07/05 03:23:47;;;;;;;10.80;5.60;;;;;;;26.50;47.53;100432.48;107826;1286;22011;-67
2023/07/05 03:26:13;;;;;;;9.20;5.10;;;;;;;26.56;47.66;100433.27;107778;1290;23154;-71
2023/07/05 03:28:40;;;;;;;7.70;5.00;;;;;;;26.63;47.85;100436.89;107850;1290;22000;-60
2023/07/05 03:31:13;;;;;;;8.30;5.30;;;;;;;26.69;47.96;100436.55;107830;1290;21987;-72
2023/07/05 03:33:39;;;;;;;9.40;5.30;;;;;;;26.76;47.98;100435.13;107858;1280;23618;-60
2023/07/05 03:36:14;;;;;;;8.10;4.80;;;;;;;26.84;48.13;100435.96;107837;1288;22007;-59
2023/07/05 03:38:40;;;;;;;7.00;4.90;;;;;;;26.92;48.05;100436.56;107910;1290;21999;-73
2023/07/05 03:41:11;;;;;;;10.40;5.90;;;;;;;27.01;48.26;100435.30;107814;1290;22024;-60
2023/07/05 03:43:37;;;;;;;8.20;5.60;;;;;;;27.10;48.54;100438.05;107811;1290;21961;-71
2023/07/05 03:46:04;;;;;;;6.70;5.40;;;;;;;27.18;48.33;100435.75;107819;1281;21988;-60
2023/07/05 03:48:31;;;;;;;8.10;5.70;;;;;;;27.27;48.39;100437.17;107843;1281;22009;-72
2023/07/05 03:50:57;;;;;;;12.40;6.40;;;;;;;27.38;48.50;100436.31;107812;1290;22001;-61
2023/07/05 03:53:24;;;;;;;8.10;5.90;;;;;;;27.48;48.60;100433.86;107883;1290;22028;-69
2023/07/05 03:55:49;;;;;;;10.20;6.60;;;;;;;27.58;48.47;100436.47;107850;1284;22239;-61
2023/07/05 03:58:15;;;;;;;13.20;6.40;;;;;;;27.68;48.35;100438.00;107828;1288;22007;-60
2023/07/05 04:00:41;;;;;;;10.30;6.70;;;;;;;27.78;48.40;100438.83;107801;1288;22452;-60
2023/07/05 04:03:07;;;;;;;10.00;6.40;;;;;;;27.82;48.59;100443.48;107828;1284;21992;-60
2023/07/05 04:05:34;;;;;;;10.20;5.70;;;;;;;27.90;48.80;100439.02;107802;1280;21989;-72
2023/07/05 04:07:59;;;;;;;9.00;6.50;;;;;;;28.04;48.83;100441.86;107904;1289;21956;-60
2023/07/05 04:10:25;;;;;;;11.70;7.20;;;;;;;28.18;48.80;100441.56;107828;1290;22007;-60
2023/07/05 04:12:51;;;;;;;10.70;8.00;;;;;;;28.30;48.85;100441.59;107814;1284;21990;-73
2023/07/05 04:15:17;;;;;;;12.60;7.70;;;;;;;28.44;48.86;100437.70;107809;1281;21988;-73
2023/07/05 04:17:42;;;;;;;11.30;8.50;;;;;;;28.58;48.80;100432.34;107831;1290;22015;-72
2023/07/05 04:20:08;;;;;;;11.20;8.60;;;;;;;28.72;48.95;100433.27;107820;1290;21996;-60
2023/07/05 04:22:35;;;;;;;11.90;8.30;;;;;;;28.84;48.70;100435.91;107862;1290;22026;-62
2023/07/05 04:25:00;;;;;;;14.40;9.10;;;;;;;28.96;48.60;100432.33;107815;1284;22467;-60
2023/07/05 04:27:26;;;;;;;10.40;9.10;;;;;;;29.12;48.72;100431.58;108337;1284;21995;-74
2023/07/05 04:29:52;;;;;;;11.70;9.20;;;;;;;29.28;48.86;100428.70;107893;1289;21997;-73
2023/07/05 04:32:17;;;;;;;10.30;9.10;;;;;;;29.45;48.63;100431.89;107792;1284;21998;-74
2023/07/05 04:34:43;;;;;;;14.10;9.50;;;;;;;29.60;48.57;100428.94;107834;1290;21989;-60
2023/07/05 04:37:08;;;;;;;16.70;9.10;;;;;;;29.77;48.79;100424.66;107800;1284;22003;-71
2023/07/05 04:39:35;;;;;;;13.20;9.20;;;;;;;29.98;48.86;100423.10;107809;1290;21992;-73
2023/07/05 04:42:01;;;;;;;11.50;8.90;;;;;;;30.20;48.65;100424.14;107787;1281;22002;-72
2023/07/05 04:44:27;;;;;;;9.60;8.20;;;;;;;30.41;48.63;100420.36;107976;1284;21994;-59
2023/07/05 04:46:52;;;;;;;10.00;8.10;;;;;;;30.62;48.55;100417.42;107786;1284;22002;-72
2023/07/05 04:49:18;;;;;;;11.80;8.90;;;;;;;30.83;48.31;100411.97;107921;1284;22462;-60
2023/07/05 04:51:44;;;;;;;12.50;8.30;;;;;;;31.05;48.11;100415.14;107794;1284;22083;-73
2023/07/05 04:54:09;;;;;;;10.60;9.40;;;;;;;31.25;47.95;100415.46;107767;1280;21999;-72
2023/07/05 04:56:36;;;;;;;10.30;8.80;;;;;;;31.45;47.66;100414.96;107823;1281;21987;-60
2023/07/05 04:59:01;;;;;;;12.20;8.80;;;;;;;31.65;47.46;100416.61;107890;1284;21991;-60
2023/07/05 05:01:27;;;;;;;9.50;8.40;;;;;;;31.83;47.24;100416.25;107807;1290;22019;-59
2023/07/05 05:03:53;;;;;;;10.20;8.90;;;;;;;32.01;47.13;100418.46;107809;1284;21994;-59
2023/07/05 05:06:19;;;;;;;10.80;8.80;;;;;;;32.19;47.00;100421.10;107819;1290;21995;-72
2023/07/05 05:08:45;;;;;;;10.20;8.40;;;;;;;32.43;46.39;100418.98;107826;1290;21997;-71
2023/07/05 05:11:10;;;;;;;10.20;8.10;;;;;;;32.63;46.24;100416.27;107806;1284;22001;-71
2023/07/05 05:13:36;;;;;;;10.20;9.00;;;;;;;32.86;46.01;100419.05;107806;1284;21988;-59
2023/07/05 05:16:03;;;;;;;9.40;8.10;;;;;;;33.01;45.45;100423.48;107790;1284;21997;-61
2023/07/05 05:18:30;;;;;;;9.40;8.40;;;;;;;33.11;45.38;100421.33;107844;1284;21980;-72
2023/07/05 05:20:56;;;;;;;9.30;8.20;;;;;;;33.33;45.09;100420.64;107879;1284;21990;-60
2023/07/05 05:23:22;;;;;;;9.70;8.20;;;;;;;33.44;45.11;100419.48;107826;1284;21990;-71
2023/07/05 05:25:49;;;;;;;9.00;8.00;;;;;;;33.59;45.10;100418.04;107795;1281;22001;-60
2023/07/05 05:28:15;;;;;;;9.90;7.60;;;;;;;33.75;44.74;100418.46;107819;1290;21991;-70
2023/07/05 05:30:41;;;;;;;9.00;8.00;;;;;;;33.91;44.81;100416.58;107833;1284;21990;-60
2023/07/05 05:33:06;;;;;;;9.80;8.70;;;;;;;34.19;44.40;100412.52;107820;1281;22087;-68
2023/07/05 05:35:34;;;;;;;8.90;8.00;;;;;;;34.31;43.90;100413.42;107811;1284;22046;-72
2023/07/05 05:38:00;;;;;;;12.10;8.90;;;;;;;34.45;43.81;100414.59;107807;1284;21990;-59
2023/07/05 05:40:26;;;;;;;11.50;8.20;;;;;;;34.69;43.68;100414.05;107820;1280;22000;-60
2023/07/05 05:42:52;;;;;;;9.60;8.60;;;;;;;34.83;43.52;100412.30;107810;1290;21999;-71
2023/07/05 05:45:18;;;;;;;8.90;8.00;;;;;;;35.06;43.30;100411.30;107860;1288;22002;-71
2023/07/05 05:47:43;;;;;;;9.80;8.10;;;;;;;35.22;42.94;100406.66;107831;1281;21990;-71
2023/07/05 05:50:09;;;;;;;11.60;9.40;;;;;;;35.45;42.76;100401.23;107804;1281;21997;-71
2023/07/05 05:52:35;;;;;;;10.80;7.90;;;;;;;35.64;42.51;100400.91;107861;1287;22000;-70
2023/07/05 05:55:02;;;;;;;8.00;7.20;;;;;;;35.77;42.47;100398.94;107888;1290;22000;-60
2023/07/05 05:57:28;;;;;;;11.10;8.30;;;;;;;35.93;42.04;100402.02;107932;1284;21993;-61
2023/07/05 05:59:54;;;;;;;9.90;7.50;;;;;;;36.11;41.79;100398.26;107948;1284;21996;-71
2023/07/05 06:02:21;;;;;;;10.70;7.20;;;;;;;36.31;41.60;100399.62;107783;1288;24397;-61
2023/07/05 06:04:46;;;;;;;8.70;7.70;;;;;;;36.52;41.32;100400.02;107764;1289;21990;-61
2023/07/05 06:07:12;;;;;;;8.10;7.30;;;;;;;36.73;41.00;100398.36;107800;1291;21977;-61
2023/07/05 06:09:47;;;;;;;8.20;7.20;;;;;;;36.95;40.51;100398.45;107763;1291;21998;-71
2023/07/05 06:12:13;;;;;;;13.00;7.70;;;;;;;37.13;40.44;100399.63;107846;1287;21989;-61
2023/07/05 06:14:40;;;;;;;11.40;7.20;;;;;;;37.30;40.23;100396.13;107813;1289;22001;-71
2023/07/05 06:17:09;;;;;;;9.10;6.60;;;;;;;37.49;39.74;100395.78;107796;1290;21990;-61
2023/07/05 06:19:34;;;;;;;8.10;6.20;;;;;;;37.78;39.21;100393.35;107804;1284;21998;-72
2023/07/05 06:22:00;;;;;;;8.10;6.50;;;;;;;38.06;38.62;100391.52;107775;1291;21998;-61
2023/07/05 06:24:25;;;;;;;12.40;6.60;;;;;;;38.28;38.41;100388.89;107976;1286;21993;-71
2023/07/05 06:26:52;;;;;;;11.10;7.20;;;;;;;38.44;38.22;100391.97;107787;1281;22011;-72
2023/07/05 06:29:18;;;;;;;8.00;6.50;;;;;;;38.58;37.94;100389.80;107843;1284;21956;-61
2023/07/05 06:31:44;;;;;;;8.90;6.60;;;;;;;38.76;37.71;100387.44;107752;1284;22009;-72
2023/07/05 06:34:10;;;;;;;9.20;6.70;;;;;;;38.97;37.59;100382.84;107765;1284;21992;-72
2023/07/05 06:36:35;;;;;;;8.50;6.30;;;;;;;39.16;37.30;100382.64;107786;1290;22453;-71
2023/07/05 06:39:01;;;;;;;10.50;6.10;;;;;;;39.41;36.95;100384.88;107777;1290;21997;-71
2023/07/05 06:41:28;;;;;;;11.60;6.00;;;;;;;39.60;36.42;100383.28;107884;1290;21980;-61
2023/07/05 06:43:54;;;;;;;9.30;6.60;;;;;;;39.72;35.75;100384.64;107800;1284;22096;-61
2023/07/05 06:46:20;;;;;;;8.10;6.10;;;;;;;39.82;35.85;100388.09;107782;1284;21996;-73
2023/07/05 06:48:45;;;;;;;8.30;6.00;;;;;;;39.82;36.03;100388.14;107813;1290;21986;-73
2023/07/05 06:51:11;;;;;;;7.30;6.00;;;;;;;39.94;35.84;100387.75;107779;1284;21990;-72
2023/07/05 06:53:38;;;;;;;8.30;5.50;;;;;;;40.15;35.49;100387.42;107737;1290;21990;-61
2023/07/05 06:56:04;;;;;;;6.50;4.90;;;;;;;40.30;35.02;100382.67;107776;1290;23126;-62
2023/07/05 06:58:30;;;;;;;6.50;5.50;;;;;;;40.08;32.92;100383.61;107763;1284;22030;-61
2023/07/05 07:00:55;;;;;;;6.90;5.70;;;;;;;39.93;33.44;100382.92;107750;1281;22029;-73
2023/07/05 07:03:21;;;;;;;8.30;5.90;;;;;;;39.89;32.84;100380.42;107761;1280;21987;-62
2023/07/05 07:05:51;;;;;;;8.20;5.90;;;;;;;39.65;32.94;100381.98;107815;1284;21990;-72
2023/07/05 07:08:17;;;;;;;7.60;5.90;;;;;;;39.64;33.71;100383.95;107816;1290;22008;-71
2023/07/05 07:10:43;;;;;;;6.70;5.70;;;;;;;39.89;34.24;100382.15;107795;1290;21990;-72
2023/07/05 07:13:08;;;;;;;10.70;5.50;;;;;;;40.27;33.94;100380.13;107903;1290;22104;-61
2023/07/05 07:15:35;;;;;;;8.60;6.00;;;;;;;40.66;33.30;100379.85;107735;1290;21988;-61
2023/07/05 07:18:02;;;;;;;8.10;5.80;;;;;;;40.95;33.23;100378.45;107760;1280;22034;-72
2023/07/05 07:20:28;;;;;;;6.90;5.50;;;;;;;41.28;33.22;100381.33;107803;1278;21989;-71
2023/07/05 07:22:53;;;;;;;7.00;5.40;;;;;;;41.62;32.81;100377.80;107777;1290;21992;-61
2023/07/05 07:25:19;;;;;;;9.70;5.40;;;;;;;41.73;31.72;100375.46;107753;1290;22456;-72
2023/07/05 07:27:45;;;;;;;5.50;4.70;;;;;;;41.68;31.83;100381.33;107773;1287;22456;-62
2023/07/05 07:30:11;;;;;;;7.00;5.10;;;;;;;41.82;31.97;100379.84;107954;1284;22104;-73
2023/07/05 07:32:36;;;;;;;5.70;4.60;;;;;;;41.94;31.34;100378.80;107788;1290;21995;-71
2023/07/05 07:35:03;;;;;;;7.50;5.30;;;;;;;41.82;31.07;100381.27;107749;1290;21995;-61
2023/07/05 07:37:32;;;;;;;12.90;5.10;;;;;;;41.90;30.61;100380.36;107884;1290;22156;-61
2023/07/05 07:39:58;;;;;;;6.70;4.90;;;;;;;42.09;30.84;100379.90;107926;1290;21993;-62
2023/07/05 07:42:24;;;;;;;8.80;4.60;;;;;;;42.34;30.87;100379.34;107748;1281;22004;-63
2023/07/05 07:44:53;;;;;;;5.60;4.10;;;;;;;42.46;29.78;100383.17;107783;1290;22031;-73
2023/07/05 07:47:18;;;;;;;6.10;4.10;;;;;;;42.38;29.35;100380.11;107803;1290;22158;-62
2023/07/05 07:49:44;;;;;;;5.70;4.00;;;;;;;42.56;29.92;100383.14;107735;1290;22011;-71
2023/07/05 07:52:11;;;;;;;6.40;4.50;;;;;;;42.90;29.81;100381.24;107759;1290;23056;-72
2023/07/05 07:54:38;;;;;;;7.10;4.60;;;;;;;43.03;28.15;100378.56;107772;1288;21985;-72
2023/07/05 07:57:05;;;;;;;8.10;4.60;;;;;;;42.88;27.58;100379.98;107748;1284;21995;-59
2023/07/05 07:59:30;;;;;;;7.60;4.40;;;;;;;42.77;28.55;100382.42;107790;1281;22025;-72
2023/07/05 08:01:56;;;;;;;7.20;4.40;;;;;;;42.80;28.65;100386.82;107762;1290;21992;-72
2023/07/05 08:04:22;;;;;;;4.80;3.50;;;;;;;42.73;27.94;100387.58;107769;1280;21987;-62
2023/07/05 08:06:50;;;;;;;5.70;3.20;;;;;;;42.75;26.56;100387.00;107753;1281;21996;-72
2023/07/05 08:09:21;;;;;;;4.80;3.00;;;;;;;42.53;26.73;100380.41;107865;1288;21992;-71
2023/07/05 08:11:48;;;;;;;7.00;3.70;;;;;;;42.48;25.78;100385.68;107742;1284;176536;-72
2023/07/05 08:14:17;;;;;;;5.40;3.40;;;;;;;42.48;26.15;100382.60;107814;1290;25157;-73
2023/07/05 08:16:43;;;;;;;6.40;3.20;;;;;;;42.42;26.21;100378.77;107831;1290;22033;-62
2023/07/05 08:19:09;;;;;;;8.40;3.40;;;;;;;42.31;25.88;100382.27;107898;1290;21986;-61
2023/07/05 08:21:36;;;;;;;5.10;3.50;;;;;;;42.28;26.02;100382.89;107897;1280;21993;-61
2023/07/05 08:24:05;;;;;;;4.20;3.50;;;;;;;42.26;25.23;100384.27;107867;1281;21993;-61
2023/07/05 08:26:31;;;;;;;7.10;3.90;;;;;;;42.29;24.97;100384.25;107980;1284;21988;-66
2023/07/05 08:28:57;;;;;;;8.70;3.70;;;;;;;42.32;24.09;100390.64;107863;1280;21960;-63
2023/07/05 08:31:25;;;;;;;4.40;3.40;;;;;;;42.17;25.11;100388.67;107869;1284;21999;-62
2023/07/05 08:33:51;;;;;;;18.50;4.40;;;;;;;42.23;25.67;100383.36;108243;1290;22018;-71
2023/07/05 08:36:28;;;;;;;8.70;3.70;;;;;;;42.48;25.43;100384.63;107837;1290;22003;-62
2023/07/05 08:38:55;;;;;;;6.70;3.40;;;;;;;42.84;25.79;100385.35;107787;1290;21997;-71
2023/07/05 08:41:27;;;;;;;5.90;3.70;;;;;;;43.02;24.79;100381.81;107885;1280;22322;-62
2023/07/05 08:44:01;;;;;;;8.60;4.00;;;;;;;43.15;24.40;100383.92;107893;1281;22000;-70
2023/07/05 08:46:27;;;;;;;5.90;3.80;;;;;;;43.35;24.22;100384.19;107931;1281;21998;-63
2023/07/05 08:49:01;;;;;;;6.00;3.30;;;;;;;43.57;24.05;100383.81;107801;1290;21988;-62
2023/07/05 08:51:28;;;;;;;7.40;3.60;;;;;;;43.65;24.38;100380.83;107813;1290;21958;-62
2023/07/05 08:53:57;;;;;;;8.10;3.80;;;;;;;43.78;24.76;100378.58;107992;1290;21995;-62
2023/07/05 08:56:25;;;;;;;7.90;3.10;;;;;;;44.02;25.14;100373.84;107780;1286;21992;-62
2023/07/05 08:59:12;;;;;;;9.30;4.00;;;;;;;44.46;24.37;100372.70;107845;1290;21990;-62
2023/07/05 09:01:39;;;;;;;6.60;3.50;;;;;;;44.98;24.51;100373.42;107822;1290;22183;-63
2023/07/05 09:04:12;;;;;;;5.60;2.90;;;;;;;45.21;24.05;100368.73;107836;1290;21992;-62
2023/07/05 09:06:43;;;;;;;5.20;3.20;;;;;;;45.24;24.10;100369.53;107843;1289;21991;-62
2023/07/05 09:09:28;;;;;;;5.20;3.60;;;;;;;45.02;23.50;100367.95;107822;1280;22026;-72
2023/07/05 09:12:01;;;;;;;6.10;3.50;;;;;;;44.69;23.46;100369.90;107971;1289;21991;-72
2023/07/05 09:14:41;;;;;;;5.50;3.80;;;;;;;44.31;24.15;100368.60;107893;1289;22145;-73
2023/07/05 09:17:43;;;;;;;6.00;3.80;;;;;;;44.10;24.55;100364.66;108003;1289;23644;-73
2023/07/05 09:20:20;;;;;;;4.40;3.00;;;;;;;43.90;24.74;100363.67;108050;1289;22002;-72
2023/07/05 09:22:47;;;;;;;5.60;3.30;;;;;;;43.87;23.76;100365.31;107908;1287;22005;-62
2023/07/05 09:25:14;;;;;;;5.40;3.70;;;;;;;43.59;23.16;100364.30;107780;1284;22079;-62
2023/07/05 09:27:43;;;;;;;5.50;3.60;;;;;;;43.37;23.74;100363.15;107818;1284;21997;-62
2023/07/05 09:30:10;;;;;;;4.60;3.40;;;;;;;43.25;23.25;100363.66;107870;1290;21980;-62
2023/07/05 09:32:39;;;;;;;7.50;3.60;;;;;;;43.21;23.56;100363.00;107906;1287;23096;-62
2023/07/05 09:35:19;;;;;;;5.10;3.50;;;;;;;43.16;22.83;100358.61;107945;1284;22019;-63
2023/07/05 09:38:01;;;;;;;6.80;3.80;;;;;;;43.07;22.97;100362.28;107924;1287;23851;-62
2023/07/05 09:40:29;;;;;;;7.80;3.50;;;;;;;43.07;22.79;100363.89;107944;1284;21990;-62
2023/07/05 09:43:23;;;;;;;5.10;3.40;;;;;;;43.20;23.20;100366.23;107907;1289;21995;-72
2023/07/05 09:45:49;;;;;;;5.40;3.90;;;;;;;43.37;22.97;100366.48;107914;1289;23097;-72
2023/07/05 09:48:14;;;;;;;9.50;3.60;;;;;;;43.44;23.25;100360.28;107815;1276;21987;-71
2023/07/05 09:50:48;;;;;;;5.60;3.40;;;;;;;43.44;23.20;100353.94;107832;1290;21992;-62
2023/07/05 09:53:32;;;;;;;9.10;3.30;;;;;;;43.50;22.55;100352.89;107916;1284;23833;-62
2023/07/05 09:56:00;;;;;;;8.60;3.30;;;;;;;43.61;22.11;100352.17;107830;1280;22065;-61
2023/07/05 09:58:26;;;;;;;5.40;3.70;;;;;;;43.72;22.41;100350.79;107886;1284;22009;-62
2023/07/05 10:00:52;;;;;;;5.30;3.40;;;;;;;43.86;22.01;100355.22;107837;1284;21996;-62
2023/07/05 10:03:19;;;;;;;9.20;4.10;;;;;;;44.15;22.11;100353.00;107866;1289;21989;-71
2023/07/05 10:05:52;;;;;;;6.90;3.50;;;;;;;44.33;21.73;100353.55;107807;1284;22083;-71
2023/07/05 10:08:21;;;;;;;5.90;3.60;;;;;;;44.39;21.52;100351.02;107904;1284;21982;-71
2023/07/05 10:10:47;;;;;;;6.10;3.50;;;;;;;44.40;21.74;100351.70;107851;1280;21990;-62
2023/07/05 10:13:15;;;;;;;7.70;4.30;;;;;;;44.34;22.16;100353.14;107986;1287;21996;-70
2023/07/05 10:15:43;;;;;;;7.70;3.70;;;;;;;44.23;22.20;100352.05;108178;1281;22163;-61
2023/07/05 10:18:24;;;;;;;10.20;3.60;;;;;;;44.29;22.18;100349.32;108093;1289;21992;-62
2023/07/05 10:20:49;;;;;;;7.80;3.30;;;;;;;44.41;22.53;100347.89;107995;1290;21996;-71
2023/07/05 10:23:17;;;;;;;6.20;3.30;;;;;;;44.47;21.97;100345.99;107963;1284;21991;-62
2023/07/05 10:25:43;;;;;;;8.70;3.80;;;;;;;44.42;22.21;100343.64;107925;1290;22000;-62
2023/07/05 10:28:15;;;;;;;7.40;3.70;;;;;;;44.34;22.19;100342.95;108139;1290;21989;-71
2023/07/05 10:30:52;;;;;;;5.60;4.00;;;;;;;44.38;21.99;100335.95;108022;1290;23715;-70
2023/07/05 10:33:22;;;;;;;8.30;3.90;;;;;;;44.63;21.77;100338.30;108123;1290;21992;-62
2023/07/05 10:36:03;;;;;;;8.30;3.90;;;;;;;44.79;22.12;100334.75;108080;1281;22001;-71
2023/07/05 10:38:39;;;;;;;5.50;3.60;;;;;;;44.96;21.58;100335.25;107845;1287;21991;-62
2023/07/05 10:41:12;;;;;;;4.80;3.80;;;;;;;44.91;20.93;100332.11;107881;1290;22002;-71
2023/07/05 10:43:38;;;;;;;4.80;3.70;;;;;;;44.82;21.39;100330.63;107845;1284;22001;-62
2023/07/05 10:46:04;;;;;;;9.50;3.40;;;;;;;44.98;21.91;100324.00;107748;1287;22028;-71
2023/07/05 10:48:35;;;;;;;6.50;3.00;;;;;;;45.30;21.54;100323.04;107875;1290;21992;-71
2023/07/05 10:51:01;;;;;;;7.00;3.50;;;;;;;45.53;21.03;100323.40;107872;1290;21997;-63
2023/07/05 10:53:30;;;;;;;6.30;3.30;;;;;;;45.69;20.86;100331.13;107987;1290;22001;-65
2023/07/05 10:56:05;;;;;;;4.60;3.40;;;;;;;45.81;20.49;100327.30;107918;1290;24352;-62
2023/07/05 10:58:40;;;;;;;5.40;3.70;;;;;;;46.02;20.94;100326.48;108216;1288;22123;-71
2023/07/05 11:01:18;;;;;;;7.80;3.30;;;;;;;46.28;20.41;100325.77;107788;1289;22006;-61
2023/07/05 11:03:48;;;;;;;6.60;3.40;;;;;;;46.39;20.04;100331.91;108085;1290;21992;-62
2023/07/05 11:06:15;;;;;;;5.90;3.60;;;;;;;46.50;20.19;100333.23;108024;1290;22010;-61
2023/07/05 11:08:42;;;;;;;9.10;3.70;;;;;;;46.57;19.68;100327.81;108105;1289;22047;-70
2023/07/05 11:11:18;;;;;;;3.90;3.20;;;;;;;46.57;19.85;100324.98;108195;1290;21993;-61
2023/07/05 11:13:44;;;;;;;4.90;3.10;;;;;;;46.60;20.05;100327.84;108053;1289;22000;-71
2023/07/05 11:16:16;;;;;;;5.00;3.30;;;;;;;46.79;20.45;100328.16;107954;1289;21998;-70
2023/07/05 11:18:41;;;;;;;4.70;3.30;;;;;;;47.19;20.45;100330.68;107816;1290;21998;-64
2023/07/05 11:21:36;;;;;;;7.40;3.30;;;;;;;47.58;20.06;100324.33;107749;1290;24075;-67